Flugwetter

[source: ADDS]
METAR
LOWL 210450Z 35002KT 9999 FEW035 M08/M09 Q1020 NOSIG =
TAF LOWL 202315Z 2100/2124 VRB02KT 9999 BKN025 TXM02/2114Z TNM06/2106Z TEMPO 2100/2106 BKN012 TEMPO 2118/2124 BKN012
TAF
TAF LOWL 202315Z 2100/2124 VRB02KT 9999 BKN025 TXM02/2114Z TNM06/2106Z TEMPO 2100/2106 BKN012 TEMPO 2118/2124 BKN012 =